Flag for Italy

Past Weather in 44°29'44.5"N, 11°23'38.1"E, Italy — Yesterday and Last 2 Weeks

Currently: 43 °F. Partly sunny. (Weather station: Bologna / Borgo Panigale, Italy). See more current weather

Past Weather in 44°29'44.5"N, 11°23'38.1"E — Graph

°F

44°29'44.5"N, 11°23'38.1"E Temperature Yesterday

Maximum temperature yesterday: 55 °F (at 3:20 pm)
Minimum temperature yesterday: 34 °F (at 7:50 am)
Average temperature yesterday: 44 °F

High & Low Weather Summary for the Past Weeks

 TemperatureHumidityPressure
High68 °F (Feb 24, 2:50 pm)100% (Feb 22, 6:20 am)30.63 "Hg (Feb 22, 6:20 am)
Low32 °F (Feb 28, 5:50 am)30% (Mar 3, 4:50 pm)29.98 "Hg (Mar 5, 2:20 pm)
Average49 °F66%30.35 "Hg
* Reported Feb 22 6:20 am — Mar 9 6:50 am, 44°29'44.5"N, 11°23'38.1"E. Weather by CustomWeather, © 2021

Note: Actual official high and low records may vary slightly from our data, if they occured in-between our weather recording intervals... More about our weather records

44°29'44.5"N, 11°23'38.1"E Weather History for the Previous 24 Hours

Scroll right to see more
 ConditionsComfort  
Time TempWeatherWind HumidityBarometerVisibility
6:50 am
Tue, Mar 9
43 °FPartly sunny.2 mph81%30.01 "Hg5 mi
6:20 am43 °FPassing clouds.2 mph87%30.01 "HgN/A
5:50 am43 °FPassing clouds.3 mph87%30.01 "HgN/A
4:50 am45 °FPassing clouds.3 mph81%29.98 "HgN/A
4:20 am45 °FPassing clouds.2 mph87%29.98 "HgN/A
3:50 am45 °FPassing clouds.1 mph81%29.98 "HgN/A
3:20 am45 °FPassing clouds.2 mph81%30.01 "HgN/A
2:50 am45 °FPassing clouds.1 mph81%30.01 "HgN/A
2:20 am45 °FPassing clouds.3 mph87%30.01 "HgN/A
1:50 am45 °FPassing clouds.3 mph87%30.01 "HgN/A
1:20 am45 °FPartly cloudy.3 mph87%30.01 "HgN/A
12:50 am45 °FPartly cloudy.3 mph87%30.01 "HgN/A
12:20 am45 °FPartly cloudy.5 mph87%30.01 "HgN/A
11:50 pm
Mon, Mar 8
45 °FPassing clouds.5 mph87%30.04 "HgN/A
11:20 pm45 °FPassing clouds.5 mph87%30.04 "HgN/A
10:50 pm45 °FPassing clouds.5 mph87%30.04 "HgN/A
10:20 pm43 °FPassing clouds.6 mph87%30.04 "HgN/A
9:50 pm43 °FClear.7 mph87%30.01 "Hg10 mi
9:20 pm45 °FClear.7 mph81%30.01 "Hg10 mi
8:50 pm45 °FClear.8 mph81%30.01 "Hg10 mi
8:20 pm46 °FClear.8 mph76%30.01 "Hg10 mi
7:50 pm46 °FClear.10 mph76%30.01 "Hg10 mi
7:20 pm46 °FClear.9 mph76%30.01 "Hg10 mi
6:50 pm46 °FClear.9 mph82%30.01 "Hg10 mi
6:20 pm48 °FClear.9 mph76%29.98 "Hg10 mi
5:50 pm50 °FSunny.13 mph71%29.98 "Hg10 mi
5:20 pm52 °FSunny.14 mph67%29.98 "Hg10 mi
4:50 pm54 °FPassing clouds.13 mph63%29.98 "HgN/A
4:20 pm54 °FPassing clouds.14 mph58%29.98 "HgN/A
3:50 pm55 °FPassing clouds.12 mph59%29.98 "HgN/A
3:20 pm55 °FPassing clouds.8 mph55%29.98 "HgN/A
2:50 pm54 °FPassing clouds.8 mph58%30.01 "HgN/A
2:20 pm54 °FPassing clouds.9 mph58%30.01 "HgN/A
1:50 pm54 °FPassing clouds.7 mph58%30.01 "HgN/A
1:20 pm52 °FPassing clouds.8 mph62%30.04 "HgN/A
12:50 pm52 °FPassing clouds.9 mph62%30.04 "HgN/A
12:20 pm52 °FPassing clouds.9 mph67%30.04 "HgN/A
11:50 am50 °FPassing clouds.7 mph71%30.04 "HgN/A
11:20 am48 °FPassing clouds.8 mph66%30.07 "HgN/A
10:50 am46 °FPassing clouds.6 mph66%30.07 "HgN/A
10:20 am46 °FSunny.3 mph62%30.07 "Hg10 mi
9:50 am45 °FPassing clouds.3 mph66%30.07 "HgN/A
9:20 am43 °FPassing clouds.3 mph71%30.07 "HgN/A
8:50 am41 °FPassing clouds.3 mph76%30.07 "HgN/A
8:20 am37 °FSunny.3 mph81%30.07 "Hg10 mi
Weather by CustomWeather, © 2021

See weather overview